createdAt,value
2022-09-16T00:00:44.592Z,7.07
2022-09-16T00:03:11.912Z,6.60
2022-09-16T00:05:42.275Z,8.20
2022-09-16T00:08:08.936Z,5.15
2022-09-16T00:10:34.962Z,5.93
2022-09-16T00:13:01.282Z,8.68
2022-09-16T00:15:27.080Z,6.05
2022-09-16T00:17:52.823Z,7.55
2022-09-16T00:20:18.631Z,6.05
2022-09-16T00:22:47.422Z,7.50
2022-09-16T00:25:13.296Z,6.93
2022-09-16T00:27:40.418Z,5.20
2022-09-16T00:30:06.875Z,8.07
2022-09-16T00:32:32.706Z,7.60
2022-09-16T00:34:58.447Z,7.78
2022-09-16T00:37:24.272Z,9.40
2022-09-16T00:39:50.373Z,5.18
2022-09-16T00:42:17.617Z,7.63
2022-09-16T00:45:01.587Z,4.82
2022-09-16T00:48:06.994Z,6.65
2022-09-16T00:50:53.304Z,8.90
2022-09-16T00:53:26.655Z,3.10
2022-09-16T00:55:55.526Z,6.45
2022-09-16T00:58:27.260Z,4.43
2022-09-16T01:00:53.163Z,9.18
2022-09-16T01:03:19.925Z,4.95
2022-09-16T01:05:46.816Z,5.32
2022-09-16T01:08:12.576Z,4.72
2022-09-16T01:10:41.511Z,7.60
2022-09-16T01:13:10.856Z,4.03
2022-09-16T01:15:42.465Z,4.57
2022-09-16T01:18:25.636Z,10.23
2022-09-16T01:21:11.627Z,6.90
2022-09-16T01:26:22.030Z,6.22
2022-09-16T01:29:23.837Z,8.90
2022-09-16T01:32:01.574Z,7.45
2022-09-16T01:34:46.931Z,7.30
2022-09-16T01:37:54.328Z,7.38
2022-09-16T01:40:38.492Z,4.28
2022-09-16T01:43:19.150Z,6.32
2022-09-16T01:46:09.110Z,6.97
2022-09-16T01:48:43.079Z,7.20
2022-09-16T01:51:19.129Z,4.80
2022-09-16T01:54:09.235Z,5.80
2022-09-16T01:57:02.409Z,5.85
2022-09-16T01:59:37.536Z,3.47
2022-09-16T02:02:17.396Z,6.63
2022-09-16T02:04:49.294Z,4.55
2022-09-16T02:07:19.978Z,8.68
2022-09-16T02:09:52.164Z,4.72
2022-09-16T02:12:23.774Z,6.72
2022-09-16T02:14:52.431Z,7.10
2022-09-16T02:17:22.555Z,3.10
2022-09-16T02:20:02.663Z,7.90
2022-09-16T02:22:37.786Z,10.20
2022-09-16T02:25:06.676Z,5.95
2022-09-16T02:27:35.174Z,5.63
2022-09-16T02:30:10.337Z,5.85
2022-09-16T02:32:42.934Z,9.27
2022-09-16T02:35:12.055Z,7.38
2022-09-16T02:37:46.548Z,6.95
2022-09-16T02:40:19.083Z,5.47
2022-09-16T02:42:45.155Z,8.82
2022-09-16T02:45:11.841Z,5.43
2022-09-16T02:47:52.580Z,7.97
2022-09-16T02:50:38.035Z,6.18
2022-09-16T02:53:16.848Z,6.57
2022-09-16T02:55:58.844Z,6.00
2022-09-16T02:58:24.636Z,6.13
2022-09-16T03:00:54.361Z,6.10
2022-09-16T03:03:20.795Z,5.18
2022-09-16T03:06:24.326Z,8.23
2022-09-16T03:08:51.819Z,8.82
2022-09-16T03:11:53.043Z,9.30
2022-09-16T03:14:24.876Z,6.15
2022-09-16T03:17:09.051Z,7.70
2022-09-16T03:20:20.244Z,6.38
2022-09-16T03:22:52.363Z,6.40
2022-09-16T03:25:29.274Z,5.63
2022-09-16T03:28:03.533Z,8.90
2022-09-16T03:30:34.353Z,8.05
2022-09-16T03:33:07.984Z,5.28
2022-09-16T03:35:41.655Z,4.28
2022-09-16T03:38:10.188Z,8.00
2022-09-16T03:40:37.254Z,8.32
2022-09-16T03:43:12.904Z,8.05
2022-09-16T03:45:42.108Z,5.50
2022-09-16T03:48:08.939Z,9.50
2022-09-16T03:50:35.408Z,7.63
2022-09-16T03:53:01.941Z,8.15
2022-09-16T03:55:27.789Z,5.72
2022-09-16T03:57:54.243Z,4.88
2022-09-16T04:00:20.691Z,5.15
2022-09-16T04:02:46.490Z,7.28
2022-09-16T04:05:12.366Z,8.70
2022-09-16T04:07:38.277Z,5.88
2022-09-16T04:10:05.483Z,8.05
2022-09-16T04:12:33.069Z,7.82
2022-09-16T04:15:00.786Z,5.32
2022-09-16T04:17:26.835Z,6.68
2022-09-16T04:19:52.547Z,11.57
2022-09-16T04:22:18.494Z,6.93
2022-09-16T04:24:44.264Z,9.23
2022-09-16T04:27:10.036Z,5.57
2022-09-16T04:29:36.110Z,9.70
2022-09-16T04:32:02.136Z,6.25
2022-09-16T04:34:27.973Z,5.53
2022-09-16T04:36:53.925Z,7.18
2022-09-16T04:39:19.673Z,6.85
2022-09-16T04:41:45.449Z,7.85
2022-09-16T04:44:11.389Z,8.60
2022-09-16T04:46:37.235Z,14.52
2022-09-16T04:49:03.317Z,6.57
2022-09-16T04:51:29.217Z,8.70
2022-09-16T04:53:56.504Z,8.55
2022-09-16T04:56:27.893Z,8.68
2022-09-16T04:58:56.869Z,9.27
2022-09-16T05:01:25.431Z,9.75
2022-09-16T05:03:53.813Z,7.82
2022-09-16T05:06:27.871Z,13.32
2022-09-16T05:08:55.497Z,10.43
2022-09-16T05:11:26.869Z,14.23
2022-09-16T05:13:53.308Z,15.27
2022-09-16T05:16:21.722Z,8.93
2022-09-16T05:18:49.998Z,9.93
2022-09-16T05:21:18.400Z,11.43
2022-09-16T05:23:46.957Z,13.40
2022-09-16T05:26:18.724Z,14.48
2022-09-16T05:28:44.697Z,9.30
2022-09-16T05:31:16.557Z,11.15
2022-09-16T05:33:44.563Z,10.25
2022-09-16T05:36:16.048Z,10.38
2022-09-16T05:38:54.348Z,13.60
2022-09-16T05:41:28.568Z,13.98
2022-09-16T05:43:58.070Z,11.15
2022-09-16T05:46:24.122Z,11.55
2022-09-16T05:48:50.185Z,13.00
2022-09-16T05:51:20.621Z,10.50
2022-09-16T05:53:48.133Z,11.95
2022-09-16T05:56:16.279Z,10.52
2022-09-16T05:58:42.874Z,12.30
2022-09-16T06:01:14.736Z,9.77
2022-09-16T06:03:42.044Z,11.60
2022-09-16T06:06:25.430Z,14.00
2022-09-16T06:08:54.724Z,12.82
2022-09-16T06:11:20.528Z,12.50
2022-09-16T06:13:46.834Z,9.45
2022-09-16T06:16:13.871Z,11.77
2022-09-16T06:18:39.959Z,13.85
2022-09-16T06:21:11.045Z,15.02
2022-09-16T06:23:38.362Z,10.07
2022-09-16T06:26:07.243Z,12.15
2022-09-16T06:28:33.604Z,11.63
2022-09-16T06:31:20.202Z,11.70
2022-09-16T06:33:46.217Z,10.73
2022-09-16T06:36:14.472Z,12.40
2022-09-16T06:38:40.619Z,6.68
2022-09-16T06:41:08.347Z,11.18
2022-09-16T06:43:35.109Z,9.35
2022-09-16T06:46:05.740Z,14.73
2022-09-16T06:48:33.272Z,9.80
2022-09-16T06:51:01.508Z,8.65
2022-09-16T06:53:28.162Z,6.13
2022-09-16T06:55:54.090Z,5.90
2022-09-16T06:58:19.958Z,6.03
2022-09-16T07:00:45.857Z,5.68
2022-09-16T07:03:11.659Z,5.90
2022-09-16T07:05:37.429Z,6.03
2022-09-16T07:08:03.228Z,6.63
2022-09-16T07:10:29.994Z,6.65
2022-09-16T07:12:55.936Z,6.10
2022-09-16T07:15:21.694Z,5.25
2022-09-16T07:17:52.270Z,9.05
2022-09-16T07:20:18.000Z,4.63
2022-09-16T07:22:44.223Z,9.05
2022-09-16T07:25:09.980Z,6.72
2022-09-16T07:27:35.737Z,8.85
2022-09-16T07:30:03.511Z,7.35
2022-09-16T07:32:31.489Z,7.95
2022-09-16T07:34:57.313Z,11.30
2022-09-16T07:37:23.128Z,8.23
2022-09-16T07:39:49.473Z,6.88
2022-09-16T07:42:15.576Z,9.10
2022-09-16T07:44:41.343Z,6.43
2022-09-16T07:47:07.103Z,8.07
2022-09-16T07:49:32.940Z,11.10
2022-09-16T07:51:58.757Z,10.73
2022-09-16T07:54:24.704Z,13.73
2022-09-16T07:56:50.503Z,14.25
2022-09-16T07:59:19.019Z,12.20
2022-09-16T08:01:46.120Z,11.23
2022-09-16T08:04:12.436Z,8.98
2022-09-16T08:06:39.269Z,11.50
2022-09-16T08:09:27.410Z,9.20
2022-09-16T08:11:50.902Z,10.75
2022-09-16T08:14:16.688Z,8.27
2022-09-16T08:16:42.469Z,10.13
2022-09-16T08:19:08.464Z,11.15
2022-09-16T08:21:34.219Z,11.88
2022-09-16T08:24:00.095Z,12.32
2022-09-16T08:26:26.263Z,6.38
2022-09-16T08:29:09.363Z,9.38
2022-09-16T08:31:36.370Z,7.07
2022-09-16T08:34:02.348Z,7.45
2022-09-16T08:36:28.236Z,7.45
2022-09-16T08:38:55.993Z,6.50
2022-09-16T08:41:53.156Z,6.43
2022-09-16T08:44:41.148Z,14.05
2022-09-16T08:47:43.086Z,8.18
2022-09-16T08:50:16.488Z,8.23
2022-09-16T08:52:44.590Z,9.90
2022-09-16T08:55:31.434Z,7.13
2022-09-16T08:58:03.491Z,6.63
2022-09-16T09:00:30.566Z,11.80
2022-09-16T09:03:13.772Z,6.13
2022-09-16T09:05:55.036Z,6.90
2022-09-16T09:08:44.587Z,11.40
2022-09-16T09:11:28.928Z,4.95
2022-09-16T09:14:10.249Z,6.20
2022-09-16T09:16:42.073Z,6.22
2022-09-16T09:19:10.542Z,8.13
2022-09-16T09:21:45.869Z,10.32
2022-09-16T09:24:27.423Z,8.98
2022-09-16T09:27:14.227Z,7.13
2022-09-16T09:30:00.202Z,12.20
2022-09-16T09:32:49.014Z,6.82
2022-09-16T09:35:18.546Z,11.15
2022-09-16T09:38:02.828Z,9.23
2022-09-16T09:40:51.573Z,5.43
2022-09-16T09:43:48.362Z,7.70
2022-09-16T09:46:25.797Z,4.93
2022-09-16T09:49:15.697Z,4.93
2022-09-16T09:51:50.891Z,4.70
2022-09-16T09:54:26.073Z,6.03
2022-09-16T09:57:16.170Z,6.88
2022-09-16T09:59:41.902Z,6.00
2022-09-16T10:02:16.217Z,5.32
2022-09-16T10:04:42.925Z,3.65
2022-09-16T10:07:11.278Z,6.55
2022-09-16T10:09:47.730Z,4.60
2022-09-16T10:12:13.501Z,5.10
2022-09-16T10:14:39.370Z,5.82
2022-09-16T10:17:15.017Z,4.82
2022-09-16T10:20:23.148Z,4.28
2022-09-16T10:23:00.596Z,3.42
2022-09-16T10:25:28.877Z,11.85
2022-09-16T10:28:00.705Z,2.63
2022-09-16T10:30:44.333Z,3.33
2022-09-16T10:33:29.413Z,5.35
2022-09-16T10:35:59.831Z,5.27
2022-09-16T10:39:04.418Z,6.65
2022-09-16T10:41:46.957Z,5.72
2022-09-16T10:44:26.524Z,5.43
2022-09-16T10:47:03.039Z,5.05
2022-09-16T10:49:37.400Z,4.40
2022-09-16T10:52:23.660Z,7.00
2022-09-16T10:54:50.187Z,4.75
2022-09-16T10:57:31.866Z,6.35
2022-09-16T11:00:13.455Z,3.67
2022-09-16T11:03:07.670Z,5.30
2022-09-16T11:05:57.687Z,3.85
2022-09-16T11:08:34.077Z,5.97
2022-09-16T11:11:11.776Z,5.47
2022-09-16T11:13:40.829Z,3.08
2022-09-16T11:16:41.492Z,3.90
2022-09-16T11:19:19.775Z,5.80
2022-09-16T11:22:08.756Z,4.80
2022-09-16T11:25:05.448Z,6.07
2022-09-16T11:27:53.637Z,2.85
2022-09-16T11:30:24.739Z,3.92
2022-09-16T11:32:53.412Z,4.90
2022-09-16T11:35:35.209Z,2.50
2022-09-16T11:38:00.939Z,4.95
2022-09-16T11:40:33.307Z,1.10
2022-09-16T11:43:35.267Z,3.22
2022-09-16T11:46:16.595Z,3.35
2022-09-16T11:48:51.549Z,5.35
2022-09-16T11:51:35.668Z,7.70
2022-09-16T11:54:28.990Z,5.05
2022-09-16T11:57:03.520Z,4.35
2022-09-16T11:59:36.918Z,6.25
2022-09-16T12:02:11.771Z,2.58
2022-09-16T12:04:48.786Z,3.63
2022-09-16T12:07:49.414Z,5.45
2022-09-16T12:10:27.211Z,4.30
2022-09-16T12:13:00.511Z,4.20
2022-09-16T12:15:36.907Z,4.93
2022-09-16T12:18:24.635Z,5.00
2022-09-16T12:20:56.520Z,1.52
2022-09-16T12:23:25.401Z,4.28
2022-09-16T12:26:08.796Z,2.28
2022-09-16T12:28:51.064Z,6.22
2022-09-16T12:31:24.375Z,5.57
2022-09-16T12:34:02.085Z,2.72
2022-09-16T12:36:32.585Z,3.00
2022-09-16T12:38:59.225Z,2.95
2022-09-16T12:42:00.245Z,3.33
2022-09-16T12:44:40.892Z,6.43
2022-09-16T12:47:56.932Z,3.97
2022-09-16T12:50:50.192Z,4.22
2022-09-16T12:53:59.860Z,3.30
2022-09-16T12:56:36.372Z,5.07
2022-09-16T12:59:22.918Z,3.90
2022-09-16T13:01:57.766Z,5.05
2022-09-16T13:04:33.574Z,4.50
2022-09-16T13:07:01.217Z,2.35
2022-09-16T13:09:32.436Z,4.40
2022-09-16T13:15:06.048Z,2.42
2022-09-16T13:17:35.474Z,4.38
2022-09-16T13:20:14.703Z,2.00
2022-09-16T13:22:49.409Z,3.72
2022-09-16T13:25:26.899Z,2.40
2022-09-16T13:28:01.799Z,2.97
2022-09-16T13:30:27.683Z,2.13
2022-09-16T13:32:53.473Z,2.35
2022-09-16T13:35:20.075Z,2.25
2022-09-16T13:37:47.724Z,2.78
2022-09-16T13:40:31.658Z,2.75
2022-09-16T13:43:29.505Z,1.40
2022-09-16T13:46:27.642Z,1.77
2022-09-16T13:49:03.434Z,2.80
2022-09-16T13:51:35.858Z,2.33
2022-09-16T13:54:03.746Z,5.80
2022-09-16T13:56:54.501Z,4.97
2022-09-16T13:59:23.165Z,3.35
2022-09-16T14:02:13.544Z,1.63
2022-09-16T14:04:45.906Z,2.83
2022-09-16T14:07:40.807Z,3.50
2022-09-16T14:10:29.317Z,1.98
2022-09-16T14:12:58.156Z,2.85
2022-09-16T14:15:25.317Z,1.60
2022-09-16T14:17:57.561Z,4.30
2022-09-16T14:20:24.803Z,1.63
2022-09-16T14:23:17.264Z,2.35
2022-09-16T14:25:43.124Z,5.63
2022-09-16T14:28:20.821Z,3.45
2022-09-16T14:30:59.705Z,4.65
2022-09-16T14:33:33.132Z,3.33
2022-09-16T14:36:00.925Z,2.38
2022-09-16T14:38:45.536Z,9.90
2022-09-16T14:41:21.336Z,2.17
2022-09-16T14:43:47.303Z,3.92
2022-09-16T14:46:13.222Z,1.33
2022-09-16T14:48:41.461Z,3.35
2022-09-16T14:51:20.940Z,2.28
2022-09-16T14:54:13.613Z,2.40
2022-09-16T14:56:39.696Z,2.20
2022-09-16T14:59:11.428Z,1.50
2022-09-16T15:01:38.478Z,2.05
2022-09-16T15:04:17.713Z,4.82
2022-09-16T15:06:49.916Z,1.67
2022-09-16T15:09:28.659Z,1.05
2022-09-16T15:12:00.150Z,1.50
2022-09-16T15:14:26.092Z,1.73
2022-09-16T15:17:03.091Z,2.33
2022-09-16T15:19:35.702Z,5.78
2022-09-16T15:22:03.134Z,0.52
2022-09-16T15:24:32.596Z,1.17
2022-09-16T15:26:59.322Z,1.70
2022-09-16T15:29:29.952Z,3.47
2022-09-16T15:32:20.205Z,1.90
2022-09-16T15:34:46.122Z,1.42
2022-09-16T15:37:32.917Z,1.65
2022-09-16T15:40:17.493Z,0.80
2022-09-16T15:42:43.308Z,1.77
2022-09-16T15:45:21.812Z,3.03
2022-09-16T15:48:01.376Z,1.75
2022-09-16T15:50:36.660Z,1.77
2022-09-16T15:53:07.928Z,2.33
2022-09-16T15:55:48.038Z,3.22
2022-09-16T15:58:31.833Z,3.25
2022-09-16T16:01:09.686Z,2.42
2022-09-16T16:03:44.742Z,1.60
2022-09-16T16:06:11.624Z,3.17
2022-09-16T16:08:42.415Z,2.00
2022-09-16T16:11:11.605Z,3.40
2022-09-16T16:13:38.282Z,2.55
2022-09-16T16:16:06.814Z,4.70
2022-09-16T16:18:33.392Z,2.47
2022-09-16T16:21:03.950Z,2.08
2022-09-16T16:23:29.735Z,5.55
2022-09-16T16:25:55.586Z,4.47
2022-09-16T16:28:24.382Z,2.78
2022-09-16T16:30:50.284Z,4.20
2022-09-16T16:33:16.205Z,2.35
2022-09-16T16:35:42.027Z,4.30
2022-09-16T16:38:07.821Z,3.78
2022-09-16T16:40:33.715Z,5.07
2022-09-16T16:42:59.480Z,3.38
2022-09-16T16:45:25.355Z,4.05
2022-09-16T16:47:52.901Z,4.93
2022-09-16T16:50:18.942Z,6.68
2022-09-16T16:52:50.470Z,2.53
2022-09-16T16:55:16.309Z,3.53
2022-09-16T16:57:43.411Z,5.00
2022-09-16T17:00:09.962Z,4.93
2022-09-16T17:02:35.875Z,4.93
2022-09-16T17:05:01.824Z,7.07
2022-09-16T17:07:28.464Z,3.88
2022-09-16T17:09:56.512Z,3.05
2022-09-16T17:12:22.329Z,4.05
2022-09-16T17:14:48.148Z,3.78
2022-09-16T17:17:14.031Z,2.88
2022-09-16T17:19:39.804Z,1.90
2022-09-16T17:22:05.630Z,3.47
2022-09-16T17:24:32.366Z,3.03
2022-09-16T17:26:58.171Z,4.13
2022-09-16T17:29:24.321Z,3.05
2022-09-16T17:31:50.142Z,4.50
2022-09-16T17:34:16.089Z,1.80
2022-09-16T17:36:44.851Z,3.92
2022-09-16T17:39:16.200Z,5.85
2022-09-16T17:41:42.944Z,3.83
2022-09-16T17:44:10.982Z,4.95
2022-09-16T17:46:38.426Z,4.07
2022-09-16T17:49:07.619Z,2.95
2022-09-16T17:51:35.035Z,5.68
2022-09-16T17:54:02.617Z,4.22
2022-09-16T17:56:28.974Z,3.92
2022-09-16T17:58:54.841Z,10.02
2022-09-16T18:01:23.529Z,3.72
2022-09-16T18:03:54.614Z,4.60
2022-09-16T18:06:22.861Z,4.10
2022-09-16T18:08:51.177Z,3.40
2022-09-16T18:11:18.071Z,3.88
2022-09-16T18:13:47.370Z,3.70
2022-09-16T18:16:15.848Z,5.53
2022-09-16T18:18:43.042Z,7.70
2022-09-16T18:21:13.540Z,5.43
2022-09-16T18:23:40.973Z,4.88
2022-09-16T18:26:12.459Z,3.40
2022-09-16T18:29:05.129Z,5.75
2022-09-16T18:31:26.668Z,5.57
2022-09-16T18:33:54.164Z,6.18
2022-09-16T18:36:23.600Z,7.75
2022-09-16T18:38:53.402Z,5.75
2022-09-16T18:41:22.624Z,2.17
2022-09-16T18:43:59.042Z,7.65
2022-09-16T18:46:30.904Z,5.03
2022-09-16T18:48:57.678Z,7.03
2022-09-16T18:51:26.088Z,5.75
2022-09-16T18:53:57.334Z,5.97
2022-09-16T18:56:24.811Z,10.35
2022-09-16T18:59:19.514Z,6.25
2022-09-16T19:01:38.950Z,5.20
2022-09-16T19:04:07.739Z,7.50
2022-09-16T19:06:42.259Z,12.20
2022-09-16T19:09:10.729Z,7.70
2022-09-16T19:11:37.901Z,9.60
2022-09-16T19:14:05.643Z,7.35
2022-09-16T19:16:32.477Z,7.95
2022-09-16T19:19:00.170Z,7.57
2022-09-16T19:21:26.269Z,7.20
2022-09-16T19:23:56.085Z,6.20
2022-09-16T19:26:22.219Z,5.90
2022-09-16T19:28:48.132Z,8.15
2022-09-16T19:31:14.463Z,5.68
2022-09-16T19:33:41.732Z,7.45
2022-09-16T19:36:18.930Z,9.20
2022-09-16T19:38:46.509Z,7.45
2022-09-16T19:41:13.580Z,7.32
2022-09-16T19:43:40.102Z,12.23
2022-09-16T19:46:11.977Z,6.82
2022-09-16T19:48:39.756Z,9.88
2022-09-16T19:51:07.860Z,6.38
2022-09-16T19:53:35.124Z,8.98
2022-09-16T19:56:06.730Z,7.53
2022-09-16T19:58:34.294Z,8.15
2022-09-16T20:01:01.484Z,7.90
2022-09-16T20:03:31.931Z,10.18
2022-09-16T20:06:02.181Z,11.93
2022-09-16T20:08:28.125Z,10.43
2022-09-16T20:10:54.149Z,7.32
2022-09-16T20:13:20.138Z,5.57
2022-09-16T20:15:45.984Z,8.40
2022-09-16T20:18:11.815Z,9.13
2022-09-16T20:20:37.626Z,8.98
2022-09-16T20:23:03.530Z,11.45
2022-09-16T20:25:31.162Z,10.07
2022-09-16T20:27:56.978Z,8.05
2022-09-16T20:30:23.169Z,6.53
2022-09-16T20:32:49.192Z,9.80
2022-09-16T20:35:15.075Z,9.60
2022-09-16T20:37:42.844Z,7.85
2022-09-16T20:40:08.979Z,5.90
2022-09-16T20:42:34.813Z,6.53
2022-09-16T20:45:00.564Z,5.47
2022-09-16T20:47:29.392Z,6.47
2022-09-16T20:49:55.439Z,6.80
2022-09-16T20:52:21.538Z,5.75
2022-09-16T20:54:47.741Z,7.60
2022-09-16T20:57:13.538Z,8.50
2022-09-16T20:59:39.683Z,5.40
2022-09-16T21:02:05.567Z,7.55
2022-09-16T21:04:31.332Z,8.40
2022-09-16T21:06:57.173Z,6.40
2022-09-16T21:09:25.639Z,8.70
2022-09-16T21:11:51.932Z,9.10
2022-09-16T21:14:20.690Z,7.25
2022-09-16T21:16:47.323Z,11.48
2022-09-16T21:19:13.660Z,7.65
2022-09-16T21:21:43.499Z,7.38
2022-09-16T21:24:09.666Z,7.30
2022-09-16T21:26:36.990Z,5.20
2022-09-16T21:29:10.191Z,6.85
2022-09-16T21:31:37.760Z,8.18
2022-09-16T21:34:08.656Z,11.95
2022-09-16T21:36:39.413Z,9.25
2022-09-16T21:39:06.566Z,9.50
2022-09-16T21:41:32.968Z,8.20
2022-09-16T21:43:58.841Z,12.95
2022-09-16T21:46:26.971Z,9.52
2022-09-16T21:48:57.427Z,10.57
2022-09-16T21:51:23.942Z,14.88
2022-09-16T21:53:49.910Z,8.18
2022-09-16T21:56:20.731Z,9.70
2022-09-16T21:58:48.164Z,8.27
2022-09-16T22:01:17.306Z,7.50
2022-09-16T22:03:45.239Z,15.50
2022-09-16T22:06:13.385Z,11.45
2022-09-16T22:08:48.068Z,12.30
2022-09-16T22:11:16.789Z,7.63
2022-09-16T22:13:42.799Z,13.45
2022-09-16T22:16:13.792Z,12.52
2022-09-16T22:18:39.756Z,12.23
2022-09-16T22:21:11.488Z,12.38
2022-09-16T22:23:38.901Z,12.02
2022-09-16T22:26:06.892Z,14.48
2022-09-16T22:28:34.478Z,10.25
2022-09-16T22:31:06.492Z,7.05
2022-09-16T22:33:33.473Z,9.02
2022-09-16T22:36:08.166Z,10.60
2022-09-16T22:38:34.414Z,8.53
2022-09-16T22:41:02.244Z,9.98
2022-09-16T22:43:28.315Z,15.38
2022-09-16T22:46:03.005Z,8.27
2022-09-16T22:48:29.197Z,11.30
2022-09-16T22:50:59.302Z,9.10
2022-09-16T22:53:27.491Z,16.15
2022-09-16T22:56:02.415Z,14.43
2022-09-16T22:58:29.058Z,8.27
2022-09-16T23:01:10.502Z,10.27
2022-09-16T23:03:37.188Z,11.93
2022-09-16T23:06:06.592Z,10.82
2022-09-16T23:08:37.344Z,9.13
2022-09-16T23:11:05.555Z,15.23
2022-09-16T23:13:32.831Z,9.63
2022-09-16T23:16:04.583Z,12.75
2022-09-16T23:18:32.373Z,9.88
2022-09-16T23:21:03.929Z,14.70
2022-09-16T23:23:30.812Z,10.95
2022-09-16T23:26:01.885Z,18.13
2022-09-16T23:28:27.673Z,15.07
2022-09-16T23:30:53.456Z,14.85
2022-09-16T23:33:19.243Z,12.35
2022-09-16T23:35:49.525Z,15.38
2022-09-16T23:38:16.187Z,12.98
2022-09-16T23:40:42.418Z,12.13
2022-09-16T23:43:08.889Z,12.32
2022-09-16T23:45:35.295Z,12.43
2022-09-16T23:48:01.462Z,10.25
2022-09-16T23:50:27.229Z,13.25
2022-09-16T23:52:53.429Z,17.38
2022-09-16T23:55:19.289Z,15.00
2022-09-16T23:57:45.078Z,10.23
